Main page
METAR-TAF:

Airports :

Bauru, São Paulo, Brazil

Bauru Airport

latitude: 22-19S, longitude: 049-04W, elevation: 590 m

Current weather observation

The report was made 37 minutes ago, at 03:00 UTC
Wind 11 kt from the East
Temperature 14°C
Humidity 72%
Pressure 1020 hPa
Visibility 10 km or more
no clouds below 1500 m and no cumulonimbus

METAR: SBBU 020300Z 08011KT CAVOK 14/09 Q1020

Time: 00:37 (03:37 UTC)

Forecast

The report was made 6 hours and 37 minutes ago, at 21:00 UTC
Forecast valid from 02 at 00 UTC to 02 at 12 UTC
Wind 5 kt from the East
Visibility 10 km or more
no clouds below 1500 m and no cumulonimbus

TAF: SBBU 012100Z 0200/0212 09005KT CAVOK TX18/0200Z TN12/0209Z RMK PDJ

METAR-TAF

Weather observations and forecasts of more than 4000 airports (METAR and TAF reports).

The available stations are represented by yellow and red dots on the map.

Hover mouse over dot to see the name of the station.

Then click to see weather observations and forecasts.

To change the map : click on the green buttons with a black cross to zoom in, on the green button with a dash to zoom out, or on the green arrows for adjacent maps.


METAR-TAF: